ilmateenistus.ee keskkonnaagentuur.ee
EETN Tallinna lennuväli
FTEO31 EETN 222300
TAF EETN 222330Z 2300/2324 16006KT 9999 SCT020 BKN045 TEMPO 2300/2306
    4000 SHRA BKN008 SCT020CB TEMPO 2306/2316 3000 SHRASN BKN004 BKN015CB
    BECMG 2308/2310 29012KT TEMPO 2318/2324 5000 SHSNRA BKN006 SCT020CB=

METAR EETN 230350Z 15004KT 9999 BKN014 02/02 Q1002 NOSIG=
Tallinna lennuväli
EEKA Kärdla lennuväli
FCEO32 EETN 230300
TAF EEKA 230300Z 2304/2310 34015G25KT 9999 BKN010 BKN020 TEMPO
    2304/2310 3000 SHRASN BKN004 BKN015CB TEMPO 2305/2310 34020G30KT=

METAR EEKA 230350Z 32010KT 9999 BKN005 04/03 Q1002=
Kärdla lennuväli
EEKE Kuressaare lennuväli
FCEO32 EETN 230300
TAF EEKE 230300Z 2304/2310 31012G25KT 9999 BKN008 BKN015 TEMPO
    2304/2310 3000 SHRASN BKN004 BKN015CB TEMPO 2305/2310 32020G32KT=

METAR EEKE 230350Z 32011KT 290V360 9000 -RA BKN008 OVC018 02/02 Q1003=
Kuressaare lennuväli
EEPU Pärnu lennuväli
METAR EEPU 230350Z NIL=
Pärnu lennuväli
EETU Tartu lennuväli
METAR EETU 230350Z AUTO 17008KT 9999 OVC040/// 03/M00 Q1003=
Tartu lennuväli
EEEI Ämari lennuväli
METAR EEEI 230350Z 16004KT 9999 BKN017 OVC041 03/01 Q1002 NOSIG=
Ämari lennuväli